Time;durP1;ratioP1;P1;durP2;ratioP2;P2;SDS_P1;SDS_P2;PMS_P1;PMS_P2;Temp;Humidity;BMP_temperature;BMP_pressure;BME280_temperature;BME280_humidity;BME280_pressure;Samples;Min_cycle;Max_cycle;Signal;HPM_P1;HPM_P2
2023/04/15 00:01:12;;;;;;;11.27;7.33;;;10.90;99.90;;;;;;5035180;28;20214;-75
2023/04/15 00:03:39;;;;;;;10.87;7.50;;;10.90;99.90;;;;;;5034849;28;20195;-76
2023/04/15 00:06:06;;;;;;;10.37;7.10;;;10.90;99.90;;;;;;5052448;28;20648;-75
2023/04/15 00:08:34;;;;;;;11.27;6.93;;;10.90;99.90;;;;;;5035113;28;20195;-75
2023/04/15 00:11:04;;;;;;;17.70;8.30;;;10.90;99.90;;;;;;5051525;28;20678;-75
2023/04/15 00:13:32;;;;;;;12.20;7.83;;;10.80;99.90;;;;;;5034682;28;20203;-76
2023/04/15 00:16:01;;;;;;;13.30;7.93;;;10.80;99.90;;;;;;5014396;28;20239;-77
2023/04/15 00:18:30;;;;;;;12.70;7.60;;;10.70;99.90;;;;;;5031364;28;20187;-77
2023/04/15 00:20:58;;;;;;;12.20;7.93;;;10.60;99.90;;;;;;5031142;28;20195;-77
2023/04/15 00:23:25;;;;;;;12.37;8.07;;;10.50;99.90;;;;;;5032630;28;20222;-77
2023/04/15 00:25:53;;;;;;;11.70;7.67;;;10.40;99.90;;;;;;5032812;28;20211;-78
2023/04/15 00:28:20;;;;;;;13.20;8.10;;;10.40;99.90;;;;;;5031438;28;20222;-76
2023/04/15 00:30:47;;;;;;;11.77;8.17;;;10.30;99.90;;;;;;5031254;28;20199;-76
2023/04/15 00:33:15;;;;;;;12.53;8.17;;;10.20;99.90;;;;;;5031443;28;20290;-76
2023/04/15 00:35:42;;;;;;;13.23;8.50;;;10.10;99.90;;;;;;5030910;28;20195;-75
2023/04/15 00:38:10;;;;;;;13.23;8.20;;;10.10;99.90;;;;;;5031438;28;20203;-76
2023/04/15 00:40:37;;;;;;;11.43;7.70;;;10.10;99.90;;;;;;5032478;28;20603;-76
2023/04/15 00:43:04;;;;;;;12.30;8.00;;;10.10;99.90;;;;;;5031101;28;20207;-76
2023/04/15 00:45:34;;;;;;;14.70;8.53;;;10.00;99.90;;;;;;5030996;28;20200;-76
2023/04/15 00:48:03;;;;;;;12.93;8.47;;;10.00;99.90;;;;;;5031035;28;20199;-75
2023/04/15 00:50:32;;;;;;;12.60;8.40;;;10.00;99.90;;;;;;5032557;28;20245;-75
2023/04/15 00:53:00;;;;;;;14.83;8.90;;;10.00;99.90;;;;;;5031346;28;20249;-78
2023/04/15 00:55:27;;;;;;;12.73;8.00;;;10.00;99.90;;;;;;5030892;28;20649;-76
2023/04/15 00:57:56;;;;;;;12.47;8.17;;;10.00;99.90;;;;;;5030780;28;20265;-78
2023/04/15 01:00:23;;;;;;;13.60;8.47;;;10.00;99.90;;;;;;5031134;28;20199;-76
2023/04/15 01:02:50;;;;;;;12.13;8.20;;;10.00;99.90;;;;;;5030840;28;20199;-75
2023/04/15 01:05:18;;;;;;;13.73;8.83;;;10.00;99.90;;;;;;5030423;28;20199;-78
2023/04/15 01:07:46;;;;;;;12.63;8.40;;;10.00;99.90;;;;;;5030816;28;20188;-76
2023/04/15 01:10:13;;;;;;;14.00;8.63;;;9.90;99.90;;;;;;5030924;28;20199;-75
2023/04/15 01:12:42;;;;;;;14.13;8.33;;;9.90;99.90;;;;;;5030955;28;20191;-76
2023/04/15 01:15:15;;;;;;;14.37;9.40;;;9.90;99.90;;;;;;5042794;28;20292;-75
2023/04/15 01:17:42;;;;;;;17.00;9.73;;;9.80;99.90;;;;;;5034047;28;20225;-74
2023/04/15 01:20:10;;;;;;;15.10;9.90;;;9.80;99.90;;;;;;5051861;28;20251;-74
2023/04/15 01:22:38;;;;;;;15.50;9.87;;;9.70;99.90;;;;;;5034335;28;20195;-74
2023/04/15 01:25:09;;;;;;;16.77;9.60;;;9.70;99.90;;;;;;5034075;28;20605;-74
2023/04/15 01:27:39;;;;;;;18.43;10.23;;;9.70;99.90;;;;;;5051642;28;20219;-74
2023/04/15 01:30:09;;;;;;;15.47;9.90;;;9.70;99.90;;;;;;5034268;28;20211;-74
2023/04/15 01:32:36;;;;;;;13.33;8.90;;;9.70;99.90;;;;;;5052168;28;20545;-74
2023/04/15 01:35:03;;;;;;;14.00;10.07;;;9.70;99.90;;;;;;5034013;28;20203;-74
2023/04/15 01:37:31;;;;;;;14.20;10.03;;;9.60;99.90;;;;;;5033713;28;20225;-75
2023/04/15 01:39:58;;;;;;;14.23;9.57;;;9.60;99.90;;;;;;5033811;28;20187;-75
2023/04/15 01:42:26;;;;;;;14.77;10.10;;;9.60;99.90;;;;;;5052200;28;20194;-75
2023/04/15 01:44:53;;;;;;;15.50;10.37;;;9.60;99.90;;;;;;5033678;28;20188;-75
2023/04/15 01:47:20;;;;;;;15.97;10.63;;;9.60;99.90;;;;;;5050278;28;20203;-75
2023/04/15 01:49:47;;;;;;;17.13;10.50;;;9.60;99.90;;;;;;5033888;28;20321;-74
2023/04/15 01:52:14;;;;;;;19.10;10.07;;;9.60;99.90;;;;;;5050869;28;20298;-74
2023/04/15 01:54:41;;;;;;;19.77;10.83;;;9.60;99.90;;;;;;5037332;28;20198;-74
2023/04/15 01:57:08;;;;;;;19.30;10.20;;;9.60;99.90;;;;;;5054951;28;20313;-74
2023/04/15 01:59:36;;;;;;;16.27;10.27;;;9.60;99.90;;;;;;5037307;28;20207;-75
2023/04/15 02:02:03;;;;;;;17.93;11.17;;;9.60;99.90;;;;;;5036880;28;20213;-75
2023/04/15 02:04:30;;;;;;;15.23;10.30;;;9.60;99.90;;;;;;5055060;28;20195;-75
2023/04/15 02:06:57;;;;;;;15.47;10.67;;;9.60;99.90;;;;;;5037406;28;20206;-74
2023/04/15 02:09:24;;;;;;;14.87;10.40;;;9.50;99.90;;;;;;5053709;28;20294;-75
2023/04/15 02:11:53;;;;;;;17.83;11.27;;;9.50;99.90;;;;;;5054901;28;20203;-76
2023/04/15 02:14:20;;;;;;;18.30;11.07;;;9.50;99.90;;;;;;5020333;28;20231;-75
2023/04/15 02:16:47;;;;;;;16.93;10.73;;;9.50;99.90;;;;;;5036535;28;20241;-73
2023/04/15 02:19:14;;;;;;;21.33;11.50;;;9.50;99.90;;;;;;5036780;28;20240;-72
2023/04/15 02:21:41;;;;;;;18.90;11.70;;;9.50;99.90;;;;;;5054732;28;20553;-73
2023/04/15 02:24:08;;;;;;;15.40;11.30;;;9.50;99.90;;;;;;5036903;28;20209;-76
2023/04/15 02:26:35;;;;;;;16.70;11.23;;;9.60;99.90;;;;;;5036587;28;20195;-75
2023/04/15 02:29:02;;;;;;;16.13;10.77;;;9.60;99.90;;;;;;5054516;28;20195;-73
2023/04/15 02:31:29;;;;;;;18.37;11.50;;;9.60;99.90;;;;;;5036532;28;20207;-73
2023/04/15 02:33:56;;;;;;;18.27;10.87;;;9.60;99.90;;;;;;5054496;28;20644;-76
2023/04/15 02:36:23;;;;;;;19.53;10.83;;;9.50;99.90;;;;;;5036494;28;20582;-74
2023/04/15 02:38:50;;;;;;;15.47;10.53;;;9.50;99.90;;;;;;5036418;28;20217;-74
2023/04/15 02:41:19;;;;;;;18.20;11.90;;;9.60;99.90;;;;;;5054377;28;20660;-74
2023/04/15 02:43:46;;;;;;;19.43;11.37;;;9.60;99.90;;;;;;5036491;28;20644;-74
2023/04/15 02:46:13;;;;;;;16.83;11.07;;;9.50;99.90;;;;;;5036296;28;20249;-74
2023/04/15 02:48:40;;;;;;;20.30;11.13;;;9.60;99.90;;;;;;5036240;28;20198;-74
2023/04/15 02:51:11;;;;;;;21.27;12.40;;;9.50;99.90;;;;;;5036332;28;20199;-75
2023/04/15 02:53:38;;;;;;;17.17;11.63;;;9.50;99.90;;;;;;5054252;28;20195;-76
2023/04/15 02:56:14;;;;;;;19.03;11.83;;;9.50;99.90;;;;;;5053923;28;20229;-75
2023/04/15 02:58:43;;;;;;;17.10;11.40;;;9.50;99.90;;;;;;5036244;28;20194;-75
2023/04/15 03:01:10;;;;;;;17.57;11.60;;;9.50;99.90;;;;;;5036385;28;20548;-75
2023/04/15 03:03:38;;;;;;;16.93;11.67;;;9.50;99.90;;;;;;5035948;28;20593;-74
2023/04/15 03:06:07;;;;;;;18.90;12.43;;;9.50;99.90;;;;;;5053917;28;20587;-74
2023/04/15 03:08:37;;;;;;;19.33;11.40;;;9.50;99.90;;;;;;5052536;28;20199;-76
2023/04/15 03:11:04;;;;;;;18.90;12.23;;;9.50;99.90;;;;;;5035803;28;20191;-75
2023/04/15 03:13:31;;;;;;;17.30;11.90;;;9.40;99.90;;;;;;5036031;28;20195;-74
2023/04/15 03:15:58;;;;;;;17.97;11.60;;;9.40;99.90;;;;;;5035524;28;20687;-74
2023/04/15 03:18:25;;;;;;;17.07;11.10;;;9.50;99.90;;;;;;5053531;28;20225;-73
2023/04/15 03:20:51;;;;;;;19.47;12.47;;;9.50;99.90;;;;;;5035673;28;20194;-75
2023/04/15 03:23:18;;;;;;;19.27;11.77;;;9.40;99.90;;;;;;5053530;28;20191;-73
2023/04/15 03:25:45;;;;;;;19.80;12.00;;;9.40;99.90;;;;;;5053332;28;20199;-72
2023/04/15 03:28:12;;;;;;;18.07;11.70;;;9.50;99.90;;;;;;5035570;28;20219;-73
2023/04/15 03:30:39;;;;;;;19.70;12.53;;;9.50;99.90;;;;;;5035380;28;20199;-73
2023/04/15 03:33:07;;;;;;;17.70;11.80;;;9.50;99.90;;;;;;5053357;28;20218;-75
2023/04/15 03:35:34;;;;;;;17.43;11.70;;;9.50;99.90;;;;;;5052053;28;20199;-76
2023/04/15 03:38:01;;;;;;;19.23;11.60;;;9.40;99.90;;;;;;5035390;28;20225;-74
2023/04/15 03:40:28;;;;;;;16.33;11.07;;;9.50;99.90;;;;;;5035315;28;20191;-74
2023/04/15 03:42:55;;;;;;;16.87;11.37;;;9.40;99.90;;;;;;5035452;28;20211;-75
2023/04/15 03:45:21;;;;;;;17.63;11.50;;;9.50;99.90;;;;;;5035362;28;20183;-73
2023/04/15 03:47:48;;;;;;;18.83;11.27;;;9.50;99.90;;;;;;5035272;28;20202;-73
2023/04/15 03:50:15;;;;;;;18.03;10.70;;;9.40;99.90;;;;;;5053113;28;20199;-73
2023/04/15 03:52:44;;;;;;;17.93;11.27;;;9.40;99.90;;;;;;5053522;28;20191;-74
2023/04/15 03:55:11;;;;;;;17.50;11.47;;;9.50;99.90;;;;;;5034920;28;20201;-73
2023/04/15 03:57:38;;;;;;;17.67;10.23;;;9.40;99.90;;;;;;5034874;28;20237;-73
2023/04/15 04:00:06;;;;;;;17.30;10.90;;;9.40;99.90;;;;;;5052892;28;20195;-74
2023/04/15 04:02:33;;;;;;;17.80;11.60;;;9.50;99.90;;;;;;5034939;28;20236;-73
2023/04/15 04:05:00;;;;;;;20.33;11.67;;;9.40;99.90;;;;;;5035076;28;20290;-74
2023/04/15 04:07:27;;;;;;;19.83;11.17;;;9.40;99.90;;;;;;5052982;28;20545;-74
2023/04/15 04:09:56;;;;;;;15.70;11.10;;;9.40;99.90;;;;;;5034715;28;20195;-73
2023/04/15 04:12:23;;;;;;;19.10;11.23;;;9.40;99.90;;;;;;5051512;28;20198;-73
2023/04/15 04:14:50;;;;;;;17.30;12.30;;;9.40;99.90;;;;;;5030919;28;20231;-72
2023/04/15 04:17:17;;;;;;;17.83;11.03;;;9.40;99.90;;;;;;5031149;28;20262;-74
2023/04/15 04:19:44;;;;;;;18.80;11.37;;;9.40;99.90;;;;;;5031406;28;20549;-74
2023/04/15 04:22:11;;;;;;;17.87;11.40;;;9.40;99.90;;;;;;5031518;28;20211;-73
2023/04/15 04:24:38;;;;;;;18.30;11.10;;;9.50;99.90;;;;;;5031204;28;20199;-73
2023/04/15 04:27:05;;;;;;;19.63;11.83;;;9.40;99.90;;;;;;5031194;28;20230;-73
2023/04/15 04:29:32;;;;;;;18.00;11.23;;;9.50;99.90;;;;;;5031224;28;20206;-75
2023/04/15 04:31:58;;;;;;;17.30;11.57;;;9.40;99.90;;;;;;5031242;28;20195;-73
2023/04/15 04:34:26;;;;;;;16.27;11.50;;;9.50;99.90;;;;;;5032456;28;20191;-74
2023/04/15 04:36:53;;;;;;;18.10;11.30;;;9.50;99.90;;;;;;5032474;28;20217;-73
2023/04/15 04:39:20;;;;;;;17.90;11.00;;;9.40;99.90;;;;;;5030912;28;20641;-73
2023/04/15 04:41:46;;;;;;;17.53;11.40;;;9.40;99.90;;;;;;5030958;28;20215;-74
2023/04/15 04:44:16;;;;;;;16.57;11.10;;;9.30;99.90;;;;;;5032231;28;20188;-74
2023/04/15 04:46:44;;;;;;;18.37;11.80;;;9.40;99.90;;;;;;5030874;28;20199;-73
2023/04/15 04:49:11;;;;;;;18.77;12.10;;;9.40;99.90;;;;;;5031086;28;20187;-73
2023/04/15 04:51:37;;;;;;;19.47;11.70;;;9.30;99.90;;;;;;5032160;28;20205;-73
2023/04/15 04:54:05;;;;;;;18.70;11.97;;;9.30;99.90;;;;;;5032039;28;20206;-73
2023/04/15 04:56:33;;;;;;;19.33;11.40;;;9.40;99.90;;;;;;5014633;28;20200;-73
2023/04/15 04:59:00;;;;;;;17.93;11.63;;;9.30;99.90;;;;;;5030977;28;20691;-73
2023/04/15 05:01:27;;;;;;;17.80;12.07;;;9.30;99.90;;;;;;5030805;28;20195;-73
2023/04/15 05:03:55;;;;;;;17.37;11.73;;;9.40;99.90;;;;;;5031031;28;20214;-74
2023/04/15 05:06:22;;;;;;;19.57;11.93;;;9.40;99.90;;;;;;5031056;28;20199;-73
2023/04/15 05:08:49;;;;;;;17.73;11.80;;;9.40;99.90;;;;;;5030899;28;20191;-75
2023/04/15 05:11:19;;;;;;;17.60;11.97;;;9.40;99.90;;;;;;5032051;28;20676;-73
2023/04/15 05:13:50;;;;;;;17.40;11.27;;;9.40;99.90;;;;;;5014507;28;20238;-75
2023/04/15 05:16:18;;;;;;;18.03;11.77;;;9.40;99.90;;;;;;5030287;28;20231;-74
2023/04/15 05:18:45;;;;;;;19.37;11.50;;;9.40;99.90;;;;;;5031889;28;20227;-73
2023/04/15 05:21:12;;;;;;;19.53;11.60;;;9.50;99.90;;;;;;5030831;28;20188;-74
2023/04/15 05:23:39;;;;;;;15.83;10.27;;;9.50;99.90;;;;;;5030812;28;20210;-73
2023/04/15 05:26:10;;;;;;;20.03;12.00;;;9.40;99.90;;;;;;5030568;28;20214;-75
2023/04/15 05:28:50;;;;;;;19.73;10.93;;;9.40;99.90;;;;;;5018370;28;20215;-76
2023/04/15 05:31:20;;;;;;;16.33;11.03;;;9.50;99.90;;;;;;5034331;28;20199;-75
2023/04/15 05:33:47;;;;;;;19.80;12.57;;;9.50;99.90;;;;;;5034400;28;20211;-75
2023/04/15 05:36:14;;;;;;;16.97;11.27;;;9.50;99.90;;;;;;5034148;28;20206;-73
2023/04/15 05:38:41;;;;;;;17.60;11.93;;;9.40;99.90;;;;;;5034107;28;20306;-73
2023/04/15 05:41:08;;;;;;;15.77;10.70;;;9.40;99.90;;;;;;5034146;28;20199;-73
2023/04/15 05:43:35;;;;;;;19.50;11.70;;;9.50;99.90;;;;;;5034100;28;20195;-73
2023/04/15 05:46:02;;;;;;;19.53;11.30;;;9.40;99.90;;;;;;5035309;28;20271;-72
2023/04/15 05:48:29;;;;;;;17.73;11.07;;;9.40;99.90;;;;;;4957711;28;20264;-71
2023/04/15 05:50:56;;;;;;;18.10;11.03;;;9.40;99.90;;;;;;4957978;28;20220;-71
2023/04/15 05:53:23;;;;;;;16.80;11.03;;;9.50;99.90;;;;;;4958153;28;20204;-72
2023/04/15 05:55:50;;;;;;;16.30;10.20;;;9.50;99.90;;;;;;4974093;28;20240;-72
2023/04/15 05:58:17;;;;;;;16.70;10.63;;;9.50;99.90;;;;;;4957765;28;20233;-73
2023/04/15 06:00:45;;;;;;;16.63;10.53;;;9.50;99.90;;;;;;4957868;28;20198;-73
2023/04/15 06:03:12;;;;;;;16.20;11.13;;;9.40;99.90;;;;;;4974055;28;20240;-72
2023/04/15 06:05:39;;;;;;;16.27;10.67;;;9.40;99.90;;;;;;4963120;28;20201;-73
2023/04/15 06:08:07;;;;;;;16.67;10.87;;;9.40;99.90;;;;;;5034895;28;20273;-73
2023/04/15 06:10:35;;;;;;;17.73;10.90;;;9.40;99.90;;;;;;5033657;28;20218;-72
2023/04/15 06:13:03;;;;;;;16.33;10.03;;;9.30;99.90;;;;;;5034980;28;20222;-72
2023/04/15 06:15:30;;;;;;;15.97;10.10;;;9.40;99.90;;;;;;5047307;28;20249;-74
2023/04/15 06:17:57;;;;;;;15.40;9.97;;;9.40;99.90;;;;;;5054393;28;20233;-72
2023/04/15 06:20:24;;;;;;;17.17;10.10;;;9.40;99.90;;;;;;5036808;28;20517;-72
2023/04/15 06:22:51;;;;;;;17.10;10.80;;;9.40;99.90;;;;;;5036849;28;20198;-72
2023/04/15 06:25:18;;;;;;;14.80;10.13;;;9.40;99.90;;;;;;5036699;28;20191;-72
2023/04/15 06:27:44;;;;;;;15.67;9.83;;;9.50;99.90;;;;;;5036585;28;20642;-72
2023/04/15 06:30:11;;;;;;;15.53;10.20;;;9.50;99.90;;;;;;5036494;28;20199;-73
2023/04/15 06:32:38;;;;;;;14.33;9.57;;;9.50;99.90;;;;;;5036932;28;20190;-73
2023/04/15 06:35:05;;;;;;;14.67;9.80;;;9.40;99.90;;;;;;5054361;28;20187;-73
2023/04/15 06:37:32;;;;;;;14.00;9.50;;;9.50;99.90;;;;;;5036573;28;20213;-73
2023/04/15 06:39:59;;;;;;;16.40;10.40;;;9.50;99.90;;;;;;5035909;28;20206;-72
2023/04/15 06:42:26;;;;;;;15.37;9.40;;;9.50;99.90;;;;;;5036407;28;20191;-72
2023/04/15 06:44:53;;;;;;;17.17;9.07;;;9.50;99.90;;;;;;5036284;28;20290;-72
2023/04/15 06:47:20;;;;;;;24.07;10.57;;;9.50;99.90;;;;;;5036063;28;20199;-72
2023/04/15 06:49:47;;;;;;;15.13;8.87;;;9.50;99.90;;;;;;5054609;28;20197;-72
2023/04/15 06:52:15;;;;;;;14.30;9.17;;;9.60;99.90;;;;;;5036273;28;20244;-72
2023/04/15 06:54:42;;;;;;;12.53;8.70;;;9.60;99.90;;;;;;5036070;28;20233;-72
2023/04/15 06:57:09;;;;;;;14.10;9.13;;;9.60;99.90;;;;;;5054036;28;20552;-72
2023/04/15 06:59:42;;;;;;;16.57;9.10;;;9.60;99.90;;;;;;5053666;28;20254;-72
2023/04/15 07:02:12;;;;;;;13.50;8.37;;;9.60;99.90;;;;;;5035647;28;20195;-71
2023/04/15 07:04:39;;;;;;;14.10;8.20;;;9.60;99.90;;;;;;5053654;28;20289;-71
2023/04/15 07:07:07;;;;;;;12.43;8.47;;;9.60;99.90;;;;;;5053640;28;20236;-72
2023/04/15 07:09:33;;;;;;;13.63;7.90;;;9.50;99.90;;;;;;5035728;28;20199;-73
2023/04/15 07:12:00;;;;;;;14.50;7.87;;;9.60;99.90;;;;;;5052571;28;20209;-72
2023/04/15 07:14:28;;;;;;;12.27;7.77;;;9.50;99.90;;;;;;5035321;28;20699;-74
2023/04/15 07:16:55;;;;;;;11.77;7.53;;;9.60;99.90;;;;;;5035368;28;20285;-73
2023/04/15 07:19:22;;;;;;;12.00;7.53;;;9.50;99.90;;;;;;5035554;28;20310;-72
2023/04/15 07:21:50;;;;;;;9.87;7.20;;;9.50;99.90;;;;;;5035811;28;20191;-73
2023/04/15 07:24:18;;;;;;;10.67;7.27;;;9.50;99.90;;;;;;5035861;28;20205;-72
2023/04/15 07:26:46;;;;;;;12.43;7.37;;;9.50;99.90;;;;;;5053223;28;20221;-72
2023/04/15 07:29:12;;;;;;;12.47;7.33;;;9.50;99.90;;;;;;5035461;28;20248;-71
2023/04/15 07:31:41;;;;;;;10.07;7.33;;;9.60;99.90;;;;;;5035132;28;20191;-71
2023/04/15 07:34:08;;;;;;;9.87;6.43;;;9.60;99.90;;;;;;5035193;28;20268;-71
2023/04/15 07:36:35;;;;;;;12.07;6.47;;;9.60;99.90;;;;;;5052987;28;20302;-71
2023/04/15 07:39:03;;;;;;;9.70;6.80;;;9.60;99.90;;;;;;5052963;28;20207;-72
2023/04/15 07:41:30;;;;;;;11.57;7.00;;;9.60;99.90;;;;;;5035291;28;20187;-70
2023/04/15 07:43:57;;;;;;;8.50;6.37;;;9.50;99.90;;;;;;5035211;28;20198;-71
2023/04/15 07:46:26;;;;;;;9.20;6.70;;;9.50;99.90;;;;;;5034920;28;20653;-72
2023/04/15 07:48:53;;;;;;;10.87;6.90;;;9.50;99.90;;;;;;5035069;28;20199;-71
2023/04/15 07:51:20;;;;;;;11.07;7.07;;;9.50;99.90;;;;;;5052487;28;20195;-71
2023/04/15 07:53:48;;;;;;;10.93;6.70;;;9.50;99.90;;;;;;5034915;28;20209;-71
2023/04/15 07:56:20;;;;;;;10.03;6.57;;;9.50;99.90;;;;;;5052689;28;20201;-71
2023/04/15 07:58:47;;;;;;;10.23;6.40;;;9.60;99.90;;;;;;5034668;28;20237;-71
2023/04/15 08:01:14;;;;;;;8.77;6.50;;;9.60;99.90;;;;;;5034784;28;20199;-71
2023/04/15 08:03:41;;;;;;;9.10;6.20;;;9.60;99.90;;;;;;5034856;28;20203;-71
2023/04/15 08:06:09;;;;;;;12.30;6.63;;;9.60;99.90;;;;;;5034846;28;20201;-74
2023/04/15 08:08:36;;;;;;;10.30;6.23;;;9.60;99.90;;;;;;5034775;28;20210;-72
2023/04/15 08:11:07;;;;;;;10.20;6.30;;;9.60;99.90;;;;;;5052929;28;20197;-72
2023/04/15 08:13:34;;;;;;;10.90;5.77;;;9.60;99.90;;;;;;5034550;28;20199;-73
2023/04/15 08:16:22;;;;;;;10.77;5.83;;;9.60;99.90;;;;;;5034311;28;20710;-72
2023/04/15 08:18:51;;;;;;;8.80;5.77;;;9.60;99.90;;;;;;5034364;28;20218;-73
2023/04/15 08:21:18;;;;;;;11.50;6.40;;;9.60;99.90;;;;;;5034589;28;20532;-72
2023/04/15 08:23:48;;;;;;;8.73;5.73;;;9.70;99.90;;;;;;5052377;28;20195;-73
2023/04/15 08:26:16;;;;;;;8.10;5.57;;;9.60;99.90;;;;;;5052576;28;20209;-73
2023/04/15 08:28:44;;;;;;;8.90;5.73;;;9.70;99.90;;;;;;5051338;28;20219;-73
2023/04/15 08:31:13;;;;;;;9.37;5.60;;;9.80;99.90;;;;;;5052502;28;20191;-74
2023/04/15 08:33:40;;;;;;;6.87;5.03;;;9.80;99.90;;;;;;5034335;28;20241;-73
2023/04/15 08:36:07;;;;;;;9.27;5.63;;;9.80;99.90;;;;;;5052141;28;20187;-74
2023/04/15 08:38:35;;;;;;;7.33;5.23;;;9.80;99.90;;;;;;5034268;28;20225;-73
2023/04/15 08:41:06;;;;;;;9.13;4.97;;;9.80;99.90;;;;;;5034231;28;20187;-72
2023/04/15 08:43:34;;;;;;;7.37;4.57;;;9.80;99.90;;;;;;5034298;28;20554;-73
2023/04/15 08:46:03;;;;;;;6.87;4.77;;;9.80;99.90;;;;;;5034301;28;20230;-74
2023/04/15 08:48:33;;;;;;;11.57;5.33;;;9.80;99.90;;;;;;5034084;28;20202;-72
2023/04/15 08:51:00;;;;;;;10.33;5.40;;;9.90;99.90;;;;;;5033617;28;20195;-71
2023/04/15 08:53:29;;;;;;;11.10;5.10;;;9.90;99.90;;;;;;5034078;28;20195;-71
2023/04/15 08:55:58;;;;;;;7.03;4.00;;;9.90;99.90;;;;;;5052074;28;20193;-72
2023/04/15 08:58:26;;;;;;;6.73;4.70;;;10.00;99.90;;;;;;5051943;28;20687;-71
2023/04/15 09:00:53;;;;;;;6.57;4.23;;;10.00;99.90;;;;;;5050636;28;20201;-71
2023/04/15 09:03:22;;;;;;;6.40;4.60;;;10.00;99.90;;;;;;5055959;28;20194;-71
2023/04/15 09:05:50;;;;;;;6.93;4.70;;;10.00;99.90;;;;;;5038249;28;20213;-71
2023/04/15 09:08:19;;;;;;;7.50;4.10;;;10.10;99.90;;;;;;5037879;28;20218;-71
2023/04/15 09:10:46;;;;;;;5.13;4.23;;;10.10;99.90;;;;;;5056192;28;20211;-71
2023/04/15 09:13:13;;;;;;;6.63;4.40;;;10.10;99.90;;;;;;5038172;28;20175;-71
2023/04/15 09:15:40;;;;;;;6.03;4.27;;;10.10;99.90;;;;;;5034253;28;20243;-71
2023/04/15 09:18:07;;;;;;;5.80;4.17;;;10.10;99.90;;;;;;5034233;28;20257;-74
2023/04/15 09:20:41;;;;;;;5.80;4.00;;;10.20;99.90;;;;;;5034507;28;20209;-74
2023/04/15 09:23:16;;;;;;;11.10;4.00;;;10.20;99.90;;;;;;5034379;28;20686;-72
2023/04/15 09:25:45;;;;;;;7.30;4.00;;;10.20;99.90;;;;;;5034402;28;20198;-72
2023/04/15 09:28:11;;;;;;;4.77;3.73;;;10.10;99.90;;;;;;5034495;28;20215;-70
2023/04/15 09:30:45;;;;;;;9.30;4.17;;;10.20;99.90;;;;;;5034133;28;20206;-71
2023/04/15 09:33:16;;;;;;;8.57;4.23;;;10.20;99.90;;;;;;5034069;28;20663;-74
2023/04/15 09:36:04;;;;;;;8.50;4.00;;;10.20;99.90;;;;;;5018237;28;20564;-71
2023/04/15 09:38:31;;;;;;;5.60;3.50;;;10.20;99.90;;;;;;5035509;28;20211;-71
2023/04/15 09:40:58;;;;;;;7.10;4.60;;;10.20;99.90;;;;;;5035408;28;20191;-72
2023/04/15 09:43:39;;;;;;;6.47;4.10;;;10.20;99.90;;;;;;5034036;28;20215;-72
2023/04/15 09:46:06;;;;;;;6.53;3.90;;;10.30;99.90;;;;;;5035534;28;20247;-72
2023/04/15 09:48:33;;;;;;;6.83;3.80;;;10.30;99.90;;;;;;5033884;28;20298;-73
2023/04/15 09:51:15;;;;;;;4.70;3.80;;;10.30;99.90;;;;;;5034086;28;20199;-72
2023/04/15 09:53:55;;;;;;;8.20;4.27;;;10.30;99.90;;;;;;5034106;28;20208;-75
2023/04/15 09:56:22;;;;;;;4.70;3.57;;;10.30;99.90;;;;;;5034124;28;20191;-74
2023/04/15 09:58:56;;;;;;;4.70;3.33;;;10.30;99.90;;;;;;5033364;28;20223;-75
2023/04/15 10:01:23;;;;;;;5.53;3.67;;;10.40;99.90;;;;;;5033653;28;20211;-75
2023/04/15 10:03:51;;;;;;;8.97;4.30;;;10.40;99.90;;;;;;5034868;28;20206;-75
2023/04/15 10:06:18;;;;;;;5.40;4.10;;;10.40;99.90;;;;;;5033989;28;20417;-78
2023/04/15 10:08:46;;;;;;;5.10;4.30;;;10.50;99.90;;;;;;5034034;28;20203;-77
2023/04/15 10:11:13;;;;;;;6.67;4.07;;;10.50;99.90;;;;;;5035219;28;20223;-76
2023/04/15 10:13:40;;;;;;;5.70;3.97;;;10.50;99.90;;;;;;5033233;28;20214;-77
2023/04/15 10:16:13;;;;;;;6.03;4.17;;;10.60;99.90;;;;;;5033284;28;20302;-75
2023/04/15 10:18:43;;;;;;;4.70;4.23;;;10.60;99.90;;;;;;5033384;28;20223;-77
2023/04/15 10:21:12;;;;;;;5.93;4.10;;;10.60;99.90;;;;;;5034829;28;20199;-73
2023/04/15 10:23:40;;;;;;;5.73;4.00;;;10.60;99.90;;;;;;5033652;28;20203;-73
2023/04/15 10:26:08;;;;;;;5.40;3.67;;;10.60;99.90;;;;;;5034399;28;20207;-74
2023/04/15 10:28:35;;;;;;;5.93;3.73;;;10.60;99.90;;;;;;5034640;28;20691;-74
2023/04/15 10:31:04;;;;;;;5.10;3.50;;;10.50;99.90;;;;;;5034769;28;20218;-71
2023/04/15 10:33:32;;;;;;;5.23;3.40;;;10.60;99.90;;;;;;5033114;28;20223;-73
2023/04/15 10:36:00;;;;;;;5.33;3.67;;;10.50;99.90;;;;;;5033173;28;20199;-72
2023/04/15 10:38:41;;;;;;;6.63;3.70;;;10.50;99.90;;;;;;5032856;28;20533;-78
2023/04/15 10:41:20;;;;;;;7.53;3.60;;;10.50;99.90;;;;;;5034374;28;20203;-73
2023/04/15 10:43:49;;;;;;;7.37;5.40;;;10.60;99.90;;;;;;5032914;28;20257;-73
2023/04/15 10:46:23;;;;;;;5.50;4.13;;;10.60;99.90;;;;;;5034645;28;20196;-75
2023/04/15 10:48:52;;;;;;;5.13;3.60;;;10.70;99.90;;;;;;5032740;28;20250;-77
2023/04/15 10:51:30;;;;;;;4.73;3.80;;;10.70;99.90;;;;;;5032682;28;20298;-76
2023/04/15 10:53:58;;;;;;;4.73;3.67;;;10.70;99.90;;;;;;5032832;28;20191;-76
2023/04/15 10:56:28;;;;;;;6.07;4.33;;;10.80;99.90;;;;;;5034440;28;20210;-76
2023/04/15 10:58:57;;;;;;;8.07;4.03;;;10.80;99.90;;;;;;5034515;28;20223;-80
2023/04/15 11:01:58;;;;;;;5.67;3.50;;;10.90;99.90;;;;;;5016788;28;20209;-80
2023/04/15 11:04:56;;;;;;;5.27;3.50;;;10.80;99.90;;;;;;5033963;28;20189;-77
2023/04/15 11:07:49;;;;;;;4.23;3.20;;;10.90;99.90;;;;;;5033638;28;20195;-83
2023/04/15 11:10:25;;;;;;;4.43;3.70;;;10.90;99.90;;;;;;5036022;28;20231;-77
2023/04/15 11:12:57;;;;;;;4.73;3.43;;;10.90;99.90;;;;;;5032980;28;20198;-77
2023/04/15 11:15:24;;;;;;;5.43;3.80;;;10.90;99.90;;;;;;5044511;28;20237;-77
2023/04/15 11:17:51;;;;;;;6.43;3.60;;;11.00;99.90;;;;;;5037011;28;20262;-75
2023/04/15 11:20:18;;;;;;;4.37;3.47;;;11.00;99.90;;;;;;5035824;28;20257;-77
2023/04/15 11:22:50;;;;;;;4.97;3.60;;;11.00;99.90;;;;;;5035418;28;20199;-75
2023/04/15 11:25:24;;;;;;;5.30;3.70;;;11.00;99.90;;;;;;5051975;28;20645;-74
2023/04/15 11:27:56;;;;;;;6.83;3.77;;;10.90;99.90;;;;;;5035249;28;20584;-73
2023/04/15 11:30:26;;;;;;;6.93;4.13;;;10.90;99.90;;;;;;5035344;28;20244;-75
2023/04/15 11:32:56;;;;;;;6.23;4.20;;;11.00;99.90;;;;;;5053614;28;20593;-72
2023/04/15 11:35:23;;;;;;;5.07;4.07;;;11.10;99.90;;;;;;5035321;28;20187;-72
2023/04/15 11:37:50;;;;;;;9.13;5.20;;;11.10;99.90;;;;;;5053124;28;20207;-76
2023/04/15 11:40:23;;;;;;;9.43;5.53;;;11.30;99.90;;;;;;5036183;28;20211;-77
2023/04/15 11:43:12;;;;;;;8.77;5.67;;;11.40;99.90;;;;;;5039419;28;20245;-80
2023/04/15 11:45:56;;;;;;;11.17;6.20;;;11.50;99.90;;;;;;5035582;28;20199;-86
2023/04/15 11:48:29;;;;;;;7.70;5.43;;;11.60;99.90;;;;;;5051750;28;20198;-73
2023/04/15 11:51:01;;;;;;;7.07;5.70;;;11.60;99.90;;;;;;5059068;28;20187;-75
2023/04/15 11:53:46;;;;;;;8.30;5.47;;;11.50;99.90;;;;;;5052483;28;20647;-74
2023/04/15 11:56:31;;;;;;;12.73;5.40;;;11.50;99.90;;;;;;5040642;28;20202;-74
2023/04/15 11:58:58;;;;;;;5.47;4.30;;;11.40;99.90;;;;;;5034727;28;20226;-75
2023/04/15 12:01:40;;;;;;;6.57;4.67;;;11.40;99.90;;;;;;5052751;28;20274;-75
2023/04/15 12:04:16;;;;;;;7.17;4.10;;;11.40;99.90;;;;;;5034670;28;20198;-74
2023/04/15 12:06:49;;;;;;;5.70;4.00;;;11.30;99.90;;;;;;5035035;28;20656;-73
2023/04/15 12:09:16;;;;;;;5.90;4.50;;;11.30;99.90;;;;;;5052775;28;20237;-72
2023/04/15 12:11:48;;;;;;;3.30;2.60;;;11.30;99.90;;;;;;5053320;28;20186;-76
2023/04/15 12:14:19;;;;;;;3.77;2.40;;;11.40;99.90;;;;;;5042033;28;20264;-76
2023/04/15 12:16:48;;;;;;;3.87;1.97;;;11.40;99.90;;;;;;5034478;28;20253;-79
2023/04/15 12:19:23;;;;;;;2.97;2.20;;;11.30;99.90;;;;;;5032921;28;20222;-78
2023/04/15 12:21:51;;;;;;;4.13;2.47;;;11.30;99.90;;;;;;5051207;28;20210;-77
2023/04/15 12:24:22;;;;;;;5.73;2.73;;;11.20;99.90;;;;;;5052860;28;20252;-83
2023/04/15 12:26:55;;;;;;;5.03;3.03;;;11.30;99.90;;;;;;5034595;28;20202;-77
2023/04/15 12:29:27;;;;;;;8.33;3.50;;;11.30;99.90;;;;;;5052374;28;20214;-78
2023/04/15 12:32:09;;;;;;;5.45;4.10;;;11.20;99.90;;;;;;5033316;28;20409;-78
2023/04/15 12:34:44;;;;;;;6.40;4.00;;;11.30;99.90;;;;;;5050953;28;20199;-78
2023/04/15 12:37:13;;;;;;;4.50;3.40;;;11.40;99.90;;;;;;5033630;28;20205;-79
2023/04/15 12:39:42;;;;;;;3.93;3.30;;;11.70;99.90;;;;;;5034489;28;20630;-78
2023/04/15 12:42:10;;;;;;;4.57;3.43;;;11.90;99.90;;;;;;5034655;28;20289;-75
2023/04/15 12:44:38;;;;;;;5.57;3.40;;;12.00;99.90;;;;;;5033983;28;20546;-78
2023/04/15 12:47:06;;;;;;;4.50;2.67;;;12.20;99.90;;;;;;5032428;28;20204;-77
2023/04/15 12:49:33;;;;;;;4.63;2.50;;;12.20;99.90;;;;;;5034103;28;20201;-78
2023/04/15 12:52:01;;;;;;;4.07;2.40;;;12.30;99.90;;;;;;5034616;28;20552;-77